sensor_id;sensor_type;location;lat;lon;timestamp;P1;durP1;ratioP1;P2;durP2;ratioP2
17796;SDS011;55596;53.554;9.916;2022-12-07T00:00:53;43.83;;;27.27;;
17796;SDS011;55596;53.554;9.916;2022-12-07T00:03:20;47.90;;;28.00;;
17796;SDS011;55596;53.554;9.916;2022-12-07T00:05:48;45.47;;;26.60;;
17796;SDS011;55596;53.554;9.916;2022-12-07T00:08:15;48.00;;;26.83;;
17796;SDS011;55596;53.554;9.916;2022-12-07T00:10:42;45.37;;;26.83;;
17796;SDS011;55596;53.554;9.916;2022-12-07T00:13:09;45.20;;;26.57;;
17796;SDS011;55596;53.554;9.916;2022-12-07T00:15:36;46.90;;;28.03;;
17796;SDS011;55596;53.554;9.916;2022-12-07T00:18:03;47.43;;;26.90;;
17796;SDS011;55596;53.554;9.916;2022-12-07T00:20:29;48.33;;;26.73;;
17796;SDS011;55596;53.554;9.916;2022-12-07T00:22:58;46.10;;;27.33;;
17796;SDS011;55596;53.554;9.916;2022-12-07T00:25:25;46.17;;;26.97;;
17796;SDS011;55596;53.554;9.916;2022-12-07T00:27:52;49.40;;;28.17;;
17796;SDS011;55596;53.554;9.916;2022-12-07T00:30:20;47.33;;;26.80;;
17796;SDS011;55596;53.554;9.916;2022-12-07T00:32:47;45.63;;;26.80;;
17796;SDS011;55596;53.554;9.916;2022-12-07T00:35:14;45.70;;;27.30;;
17796;SDS011;55596;53.554;9.916;2022-12-07T00:37:41;45.73;;;27.20;;
17796;SDS011;55596;53.554;9.916;2022-12-07T00:40:10;47.73;;;26.03;;
17796;SDS011;55596;53.554;9.916;2022-12-07T00:42:39;43.23;;;24.23;;
17796;SDS011;55596;53.554;9.916;2022-12-07T00:45:06;44.03;;;25.17;;
17796;SDS011;55596;53.554;9.916;2022-12-07T00:47:34;38.87;;;24.33;;
17796;SDS011;55596;53.554;9.916;2022-12-07T00:50:01;39.63;;;24.07;;
17796;SDS011;55596;53.554;9.916;2022-12-07T00:52:28;36.10;;;22.50;;
17796;SDS011;55596;53.554;9.916;2022-12-07T00:54:55;37.03;;;22.17;;
17796;SDS011;55596;53.554;9.916;2022-12-07T00:57:24;34.73;;;22.07;;
17796;SDS011;55596;53.554;9.916;2022-12-07T00:59:50;33.87;;;19.87;;
17796;SDS011;55596;53.554;9.916;2022-12-07T01:02:20;39.27;;;22.17;;
17796;SDS011;55596;53.554;9.916;2022-12-07T01:04:47;34.67;;;22.37;;
17796;SDS011;55596;53.554;9.916;2022-12-07T01:07:14;38.37;;;21.70;;
17796;SDS011;55596;53.554;9.916;2022-12-07T01:09:41;38.67;;;21.43;;
17796;SDS011;55596;53.554;9.916;2022-12-07T01:12:08;34.90;;;20.93;;
17796;SDS011;55596;53.554;9.916;2022-12-07T01:14:36;32.30;;;20.07;;
17796;SDS011;55596;53.554;9.916;2022-12-07T01:17:03;31.00;;;19.77;;
17796;SDS011;55596;53.554;9.916;2022-12-07T01:19:30;32.37;;;20.13;;
17796;SDS011;55596;53.554;9.916;2022-12-07T01:21:56;36.03;;;20.63;;
17796;SDS011;55596;53.554;9.916;2022-12-07T01:24:24;34.30;;;19.23;;
17796;SDS011;55596;53.554;9.916;2022-12-07T01:26:50;32.90;;;19.57;;
17796;SDS011;55596;53.554;9.916;2022-12-07T01:29:17;36.00;;;19.80;;
17796;SDS011;55596;53.554;9.916;2022-12-07T01:31:47;33.43;;;18.23;;
17796;SDS011;55596;53.554;9.916;2022-12-07T01:34:15;34.00;;;18.80;;
17796;SDS011;55596;53.554;9.916;2022-12-07T01:36:42;30.03;;;18.30;;
17796;SDS011;55596;53.554;9.916;2022-12-07T01:39:09;33.00;;;18.33;;
17796;SDS011;55596;53.554;9.916;2022-12-07T01:41:37;33.53;;;18.20;;
17796;SDS011;55596;53.554;9.916;2022-12-07T01:44:18;30.87;;;18.43;;
17796;SDS011;55596;53.554;9.916;2022-12-07T01:46:49;33.10;;;18.73;;
17796;SDS011;55596;53.554;9.916;2022-12-07T01:49:27;27.60;;;18.67;;
17796;SDS011;55596;53.554;9.916;2022-12-07T01:51:58;33.67;;;18.70;;
17796;SDS011;55596;53.554;9.916;2022-12-07T01:54:33;29.23;;;18.23;;
17796;SDS011;55596;53.554;9.916;2022-12-07T01:57:02;32.33;;;18.50;;
17796;SDS011;55596;53.554;9.916;2022-12-07T01:59:31;33.70;;;18.67;;
17796;SDS011;55596;53.554;9.916;2022-12-07T02:02:04;34.00;;;18.20;;
17796;SDS011;55596;53.554;9.916;2022-12-07T02:04:38;29.67;;;16.57;;
17796;SDS011;55596;53.554;9.916;2022-12-07T02:07:06;33.53;;;18.70;;
17796;SDS011;55596;53.554;9.916;2022-12-07T02:09:33;29.07;;;17.77;;
17796;SDS011;55596;53.554;9.916;2022-12-07T02:12:00;29.90;;;17.37;;
17796;SDS011;55596;53.554;9.916;2022-12-07T02:14:27;33.90;;;17.50;;
17796;SDS011;55596;53.554;9.916;2022-12-07T02:16:59;32.50;;;16.93;;
17796;SDS011;55596;53.554;9.916;2022-12-07T02:23:04;26.33;;;15.10;;
17796;SDS011;55596;53.554;9.916;2022-12-07T02:26:02;27.63;;;15.33;;
17796;SDS011;55596;53.554;9.916;2022-12-07T02:28:59;26.67;;;14.60;;
17796;SDS011;55596;53.554;9.916;2022-12-07T02:31:38;27.30;;;15.00;;
17796;SDS011;55596;53.554;9.916;2022-12-07T02:34:12;26.13;;;14.27;;
17796;SDS011;55596;53.554;9.916;2022-12-07T02:36:46;26.50;;;13.60;;
17796;SDS011;55596;53.554;9.916;2022-12-07T02:39:22;23.33;;;13.00;;
17796;SDS011;55596;53.554;9.916;2022-12-07T02:41:56;20.10;;;11.20;;
17796;SDS011;55596;53.554;9.916;2022-12-07T02:44:29;17.40;;;10.70;;
17796;SDS011;55596;53.554;9.916;2022-12-07T02:46:59;17.83;;;8.83;;
17796;SDS011;55596;53.554;9.916;2022-12-07T02:49:30;18.27;;;8.40;;
17796;SDS011;55596;53.554;9.916;2022-12-07T02:51:57;15.00;;;7.63;;
17796;SDS011;55596;53.554;9.916;2022-12-07T02:54:24;17.90;;;7.47;;
17796;SDS011;55596;53.554;9.916;2022-12-07T02:56:53;13.10;;;6.60;;
17796;SDS011;55596;53.554;9.916;2022-12-07T02:59:32;14.67;;;6.60;;
17796;SDS011;55596;53.554;9.916;2022-12-07T03:02:16;16.70;;;6.33;;
17796;SDS011;55596;53.554;9.916;2022-12-07T03:04:50;13.30;;;6.00;;
17796;SDS011;55596;53.554;9.916;2022-12-07T03:07:33;13.63;;;4.87;;
17796;SDS011;55596;53.554;9.916;2022-12-07T03:10:13;12.23;;;5.47;;
17796;SDS011;55596;53.554;9.916;2022-12-07T03:12:54;10.67;;;5.40;;
17796;SDS011;55596;53.554;9.916;2022-12-07T03:15:31;18.47;;;5.67;;
17796;SDS011;55596;53.554;9.916;2022-12-07T03:18:05;12.80;;;4.83;;
17796;SDS011;55596;53.554;9.916;2022-12-07T03:20:33;10.93;;;4.60;;
17796;SDS011;55596;53.554;9.916;2022-12-07T03:23:04;10.80;;;4.67;;
17796;SDS011;55596;53.554;9.916;2022-12-07T03:25:34;17.30;;;4.67;;
17796;SDS011;55596;53.554;9.916;2022-12-07T03:28:05;9.07;;;4.63;;
17796;SDS011;55596;53.554;9.916;2022-12-07T03:30:36;17.23;;;4.70;;
17796;SDS011;55596;53.554;9.916;2022-12-07T03:33:11;11.47;;;4.67;;
17796;SDS011;55596;53.554;9.916;2022-12-07T03:35:42;10.40;;;3.70;;
17796;SDS011;55596;53.554;9.916;2022-12-07T03:38:13;10.10;;;3.77;;
17796;SDS011;55596;53.554;9.916;2022-12-07T03:40:47;6.10;;;3.70;;
17796;SDS011;55596;53.554;9.916;2022-12-07T03:43:18;11.53;;;3.37;;
17796;SDS011;55596;53.554;9.916;2022-12-07T03:45:49;8.23;;;3.50;;
17796;SDS011;55596;53.554;9.916;2022-12-07T03:48:28;9.10;;;2.77;;
17796;SDS011;55596;53.554;9.916;2022-12-07T03:51:01;9.23;;;3.80;;
17796;SDS011;55596;53.554;9.916;2022-12-07T03:53:39;8.43;;;2.87;;
17796;SDS011;55596;53.554;9.916;2022-12-07T03:56:11;9.50;;;3.37;;
17796;SDS011;55596;53.554;9.916;2022-12-07T03:58:39;9.83;;;3.23;;
17796;SDS011;55596;53.554;9.916;2022-12-07T04:01:10;8.00;;;3.27;;
17796;SDS011;55596;53.554;9.916;2022-12-07T04:03:39;10.00;;;3.10;;
17796;SDS011;55596;53.554;9.916;2022-12-07T04:06:06;10.80;;;3.03;;
17796;SDS011;55596;53.554;9.916;2022-12-07T04:08:33;7.27;;;2.90;;
17796;SDS011;55596;53.554;9.916;2022-12-07T04:11:00;7.00;;;2.93;;
17796;SDS011;55596;53.554;9.916;2022-12-07T04:13:28;11.67;;;3.47;;
17796;SDS011;55596;53.554;9.916;2022-12-07T04:15:55;9.17;;;3.60;;
17796;SDS011;55596;53.554;9.916;2022-12-07T04:18:24;6.10;;;3.10;;
17796;SDS011;55596;53.554;9.916;2022-12-07T04:20:51;8.60;;;3.07;;
17796;SDS011;55596;53.554;9.916;2022-12-07T04:23:18;6.57;;;2.77;;
17796;SDS011;55596;53.554;9.916;2022-12-07T04:25:47;6.77;;;3.63;;
17796;SDS011;55596;53.554;9.916;2022-12-07T04:28:14;6.13;;;3.20;;
17796;SDS011;55596;53.554;9.916;2022-12-07T04:30:41;6.70;;;2.57;;
17796;SDS011;55596;53.554;9.916;2022-12-07T04:33:08;6.87;;;3.03;;
17796;SDS011;55596;53.554;9.916;2022-12-07T04:35:42;11.43;;;3.30;;
17796;SDS011;55596;53.554;9.916;2022-12-07T04:38:09;7.23;;;3.17;;
17796;SDS011;55596;53.554;9.916;2022-12-07T04:40:37;13.33;;;3.60;;
17796;SDS011;55596;53.554;9.916;2022-12-07T04:43:04;8.27;;;3.17;;
17796;SDS011;55596;53.554;9.916;2022-12-07T04:45:33;6.33;;;3.00;;
17796;SDS011;55596;53.554;9.916;2022-12-07T04:48:00;6.33;;;3.27;;
17796;SDS011;55596;53.554;9.916;2022-12-07T04:50:28;6.40;;;3.33;;
17796;SDS011;55596;53.554;9.916;2022-12-07T04:52:59;5.40;;;3.00;;
17796;SDS011;55596;53.554;9.916;2022-12-07T04:55:28;8.13;;;3.13;;
17796;SDS011;55596;53.554;9.916;2022-12-07T04:57:56;8.67;;;3.23;;
17796;SDS011;55596;53.554;9.916;2022-12-07T05:00:24;7.70;;;3.23;;
17796;SDS011;55596;53.554;9.916;2022-12-07T05:02:58;8.70;;;3.50;;
17796;SDS011;55596;53.554;9.916;2022-12-07T05:05:28;9.73;;;3.50;;
17796;SDS011;55596;53.554;9.916;2022-12-07T05:07:55;7.83;;;3.83;;
17796;SDS011;55596;53.554;9.916;2022-12-07T05:10:31;9.17;;;3.40;;
17796;SDS011;55596;53.554;9.916;2022-12-07T05:13:12;5.37;;;3.10;;
17796;SDS011;55596;53.554;9.916;2022-12-07T05:15:53;5.67;;;3.60;;
17796;SDS011;55596;53.554;9.916;2022-12-07T05:18:20;6.77;;;3.80;;
17796;SDS011;55596;53.554;9.916;2022-12-07T05:20:49;8.67;;;3.70;;
17796;SDS011;55596;53.554;9.916;2022-12-07T05:23:30;13.80;;;3.80;;
17796;SDS011;55596;53.554;9.916;2022-12-07T05:25:59;7.97;;;3.50;;
17796;SDS011;55596;53.554;9.916;2022-12-07T05:28:27;7.33;;;3.37;;
17796;SDS011;55596;53.554;9.916;2022-12-07T05:30:54;6.30;;;3.43;;
17796;SDS011;55596;53.554;9.916;2022-12-07T05:33:21;7.13;;;3.60;;
17796;SDS011;55596;53.554;9.916;2022-12-07T05:35:49;8.53;;;3.40;;
17796;SDS011;55596;53.554;9.916;2022-12-07T05:38:16;5.60;;;3.23;;
17796;SDS011;55596;53.554;9.916;2022-12-07T05:40:51;6.90;;;3.63;;
17796;SDS011;55596;53.554;9.916;2022-12-07T05:43:20;7.90;;;3.57;;
17796;SDS011;55596;53.554;9.916;2022-12-07T05:45:49;7.17;;;3.60;;
17796;SDS011;55596;53.554;9.916;2022-12-07T05:48:16;8.83;;;3.23;;
17796;SDS011;55596;53.554;9.916;2022-12-07T05:50:47;10.87;;;4.10;;
17796;SDS011;55596;53.554;9.916;2022-12-07T05:53:15;5.90;;;3.50;;
17796;SDS011;55596;53.554;9.916;2022-12-07T05:55:44;7.33;;;3.30;;
17796;SDS011;55596;53.554;9.916;2022-12-07T05:58:17;7.53;;;3.57;;
17796;SDS011;55596;53.554;9.916;2022-12-07T06:01:01;8.40;;;3.20;;
17796;SDS011;55596;53.554;9.916;2022-12-07T06:03:37;7.63;;;3.73;;
17796;SDS011;55596;53.554;9.916;2022-12-07T06:06:04;5.93;;;3.27;;
17796;SDS011;55596;53.554;9.916;2022-12-07T06:08:32;10.77;;;3.97;;
17796;SDS011;55596;53.554;9.916;2022-12-07T06:11:05;5.37;;;3.53;;
17796;SDS011;55596;53.554;9.916;2022-12-07T06:13:49;8.97;;;3.80;;
17796;SDS011;55596;53.554;9.916;2022-12-07T06:16:16;9.63;;;3.77;;
17796;SDS011;55596;53.554;9.916;2022-12-07T06:18:44;10.97;;;3.97;;
17796;SDS011;55596;53.554;9.916;2022-12-07T06:21:16;6.43;;;3.00;;
17796;SDS011;55596;53.554;9.916;2022-12-07T06:23:44;9.40;;;4.47;;
17796;SDS011;55596;53.554;9.916;2022-12-07T06:26:14;7.60;;;3.37;;
17796;SDS011;55596;53.554;9.916;2022-12-07T06:28:41;8.60;;;3.20;;
17796;SDS011;55596;53.554;9.916;2022-12-07T06:31:10;13.50;;;3.50;;
17796;SDS011;55596;53.554;9.916;2022-12-07T06:33:37;11.77;;;3.17;;
17796;SDS011;55596;53.554;9.916;2022-12-07T06:36:05;10.77;;;3.33;;
17796;SDS011;55596;53.554;9.916;2022-12-07T06:38:33;8.03;;;3.37;;
17796;SDS011;55596;53.554;9.916;2022-12-07T06:41:01;12.00;;;3.67;;
17796;SDS011;55596;53.554;9.916;2022-12-07T06:43:31;7.13;;;3.40;;
17796;SDS011;55596;53.554;9.916;2022-12-07T06:45:58;7.23;;;3.00;;
17796;SDS011;55596;53.554;9.916;2022-12-07T06:48:25;8.10;;;3.50;;
17796;SDS011;55596;53.554;9.916;2022-12-07T06:50:53;9.43;;;3.40;;
17796;SDS011;55596;53.554;9.916;2022-12-07T06:53:20;6.27;;;3.07;;
17796;SDS011;55596;53.554;9.916;2022-12-07T06:55:48;7.73;;;3.13;;
17796;SDS011;55596;53.554;9.916;2022-12-07T06:58:17;6.33;;;2.90;;
17796;SDS011;55596;53.554;9.916;2022-12-07T07:03:43;8.00;;;2.83;;
17796;SDS011;55596;53.554;9.916;2022-12-07T07:06:11;3.93;;;2.33;;
17796;SDS011;55596;53.554;9.916;2022-12-07T07:08:43;8.63;;;3.23;;
17796;SDS011;55596;53.554;9.916;2022-12-07T07:11:12;6.90;;;3.27;;
17796;SDS011;55596;53.554;9.916;2022-12-07T07:13:40;11.47;;;3.37;;
17796;SDS011;55596;53.554;9.916;2022-12-07T07:16:09;4.83;;;3.17;;
17796;SDS011;55596;53.554;9.916;2022-12-07T07:18:37;6.63;;;3.10;;
17796;SDS011;55596;53.554;9.916;2022-12-07T07:21:04;9.67;;;3.03;;
17796;SDS011;55596;53.554;9.916;2022-12-07T07:23:32;7.10;;;2.57;;
17796;SDS011;55596;53.554;9.916;2022-12-07T07:26:02;9.20;;;3.07;;
17796;SDS011;55596;53.554;9.916;2022-12-07T07:28:32;7.80;;;2.63;;
17796;SDS011;55596;53.554;9.916;2022-12-07T07:30:59;8.60;;;2.13;;
17796;SDS011;55596;53.554;9.916;2022-12-07T07:33:31;6.03;;;2.20;;
17796;SDS011;55596;53.554;9.916;2022-12-07T07:35:58;9.23;;;3.73;;
17796;SDS011;55596;53.554;9.916;2022-12-07T07:38:39;7.53;;;2.43;;
17796;SDS011;55596;53.554;9.916;2022-12-07T07:41:08;5.47;;;2.10;;
17796;SDS011;55596;53.554;9.916;2022-12-07T07:43:36;7.10;;;2.07;;
17796;SDS011;55596;53.554;9.916;2022-12-07T07:46:03;8.57;;;2.20;;
17796;SDS011;55596;53.554;9.916;2022-12-07T07:48:34;4.00;;;2.03;;
17796;SDS011;55596;53.554;9.916;2022-12-07T07:51:04;4.70;;;1.67;;
17796;SDS011;55596;53.554;9.916;2022-12-07T07:53:33;16.67;;;6.00;;
17796;SDS011;55596;53.554;9.916;2022-12-07T07:56:02;3.97;;;1.90;;
17796;SDS011;55596;53.554;9.916;2022-12-07T07:58:30;3.23;;;1.50;;
17796;SDS011;55596;53.554;9.916;2022-12-07T08:01:02;9.87;;;1.90;;
17796;SDS011;55596;53.554;9.916;2022-12-07T08:03:30;3.87;;;1.50;;
17796;SDS011;55596;53.554;9.916;2022-12-07T08:05:59;6.73;;;1.60;;
17796;SDS011;55596;53.554;9.916;2022-12-07T08:08:28;6.13;;;1.60;;
17796;SDS011;55596;53.554;9.916;2022-12-07T08:10:55;6.30;;;1.70;;
17796;SDS011;55596;53.554;9.916;2022-12-07T08:13:25;7.77;;;1.90;;
17796;SDS011;55596;53.554;9.916;2022-12-07T08:15:53;13.10;;;2.30;;
17796;SDS011;55596;53.554;9.916;2022-12-07T08:18:24;10.87;;;1.90;;
17796;SDS011;55596;53.554;9.916;2022-12-07T08:20:52;4.40;;;1.53;;
17796;SDS011;55596;53.554;9.916;2022-12-07T08:23:27;5.63;;;1.40;;
17796;SDS011;55596;53.554;9.916;2022-12-07T08:26:02;8.20;;;1.63;;
17796;SDS011;55596;53.554;9.916;2022-12-07T08:28:33;6.47;;;2.20;;
17796;SDS011;55596;53.554;9.916;2022-12-07T08:31:02;8.57;;;1.90;;
17796;SDS011;55596;53.554;9.916;2022-12-07T08:33:32;4.53;;;2.00;;
17796;SDS011;55596;53.554;9.916;2022-12-07T08:36:05;10.80;;;1.90;;
17796;SDS011;55596;53.554;9.916;2022-12-07T08:38:34;10.30;;;2.30;;
17796;SDS011;55596;53.554;9.916;2022-12-07T08:41:05;10.27;;;2.10;;
17796;SDS011;55596;53.554;9.916;2022-12-07T08:43:33;11.57;;;2.37;;
17796;SDS011;55596;53.554;9.916;2022-12-07T08:46:04;8.17;;;1.97;;
17796;SDS011;55596;53.554;9.916;2022-12-07T08:48:35;5.47;;;2.20;;
17796;SDS011;55596;53.554;9.916;2022-12-07T08:51:07;9.97;;;1.93;;
17796;SDS011;55596;53.554;9.916;2022-12-07T08:53:34;17.10;;;2.23;;
17796;SDS011;55596;53.554;9.916;2022-12-07T08:56:02;7.40;;;2.43;;
17796;SDS011;55596;53.554;9.916;2022-12-07T08:58:31;14.20;;;2.47;;
17796;SDS011;55596;53.554;9.916;2022-12-07T09:01:00;10.90;;;1.93;;
17796;SDS011;55596;53.554;9.916;2022-12-07T09:03:27;12.63;;;2.77;;
17796;SDS011;55596;53.554;9.916;2022-12-07T09:05:54;14.53;;;2.53;;
17796;SDS011;55596;53.554;9.916;2022-12-07T09:08:28;15.27;;;2.70;;
17796;SDS011;55596;53.554;9.916;2022-12-07T09:10:59;8.07;;;1.90;;
17796;SDS011;55596;53.554;9.916;2022-12-07T09:13:30;7.57;;;1.90;;
17796;SDS011;55596;53.554;9.916;2022-12-07T09:15:58;7.30;;;2.03;;
17796;SDS011;55596;53.554;9.916;2022-12-07T09:18:25;8.07;;;2.30;;
17796;SDS011;55596;53.554;9.916;2022-12-07T09:20:55;6.37;;;1.83;;
17796;SDS011;55596;53.554;9.916;2022-12-07T09:23:28;7.57;;;2.33;;
17796;SDS011;55596;53.554;9.916;2022-12-07T09:25:58;8.27;;;2.03;;
17796;SDS011;55596;53.554;9.916;2022-12-07T09:28:26;4.87;;;1.80;;
17796;SDS011;55596;53.554;9.916;2022-12-07T09:30:53;5.57;;;1.57;;
17796;SDS011;55596;53.554;9.916;2022-12-07T09:33:27;6.70;;;1.57;;
17796;SDS011;55596;53.554;9.916;2022-12-07T09:35:54;5.70;;;1.50;;
17796;SDS011;55596;53.554;9.916;2022-12-07T09:38:21;5.83;;;2.03;;
17796;SDS011;55596;53.554;9.916;2022-12-07T09:40:53;6.70;;;1.83;;
17796;SDS011;55596;53.554;9.916;2022-12-07T09:43:23;10.43;;;2.00;;
17796;SDS011;55596;53.554;9.916;2022-12-07T09:45:59;12.80;;;1.53;;
17796;SDS011;55596;53.554;9.916;2022-12-07T09:48:42;8.73;;;1.80;;
17796;SDS011;55596;53.554;9.916;2022-12-07T09:51:14;5.77;;;1.63;;
17796;SDS011;55596;53.554;9.916;2022-12-07T09:53:45;8.13;;;3.63;;
17796;SDS011;55596;53.554;9.916;2022-12-07T09:56:17;7.70;;;2.40;;
17796;SDS011;55596;53.554;9.916;2022-12-07T09:58:48;4.90;;;1.67;;
17796;SDS011;55596;53.554;9.916;2022-12-07T10:01:17;4.63;;;1.97;;
17796;SDS011;55596;53.554;9.916;2022-12-07T10:03:48;4.70;;;1.30;;
17796;SDS011;55596;53.554;9.916;2022-12-07T10:06:23;5.87;;;1.20;;
17796;SDS011;55596;53.554;9.916;2022-12-07T10:08:54;7.13;;;1.20;;
17796;SDS011;55596;53.554;9.916;2022-12-07T10:11:32;13.07;;;1.30;;
17796;SDS011;55596;53.554;9.916;2022-12-07T10:14:10;7.43;;;1.20;;
17796;SDS011;55596;53.554;9.916;2022-12-07T10:16:39;3.97;;;1.23;;
17796;SDS011;55596;53.554;9.916;2022-12-07T10:19:22;4.63;;;1.23;;
17796;SDS011;55596;53.554;9.916;2022-12-07T10:22:03;5.00;;;1.13;;
17796;SDS011;55596;53.554;9.916;2022-12-07T10:24:42;8.37;;;1.70;;
17796;SDS011;55596;53.554;9.916;2022-12-07T10:27:18;5.10;;;1.07;;
17796;SDS011;55596;53.554;9.916;2022-12-07T10:29:50;3.50;;;0.93;;
17796;SDS011;55596;53.554;9.916;2022-12-07T10:32:28;3.33;;;1.10;;
17796;SDS011;55596;53.554;9.916;2022-12-07T10:38:15;3.43;;;0.73;;
17796;SDS011;55596;53.554;9.916;2022-12-07T10:40:45;6.63;;;1.13;;
17796;SDS011;55596;53.554;9.916;2022-12-07T10:43:21;4.13;;;0.70;;
17796;SDS011;55596;53.554;9.916;2022-12-07T10:46:00;5.00;;;1.07;;
17796;SDS011;55596;53.554;9.916;2022-12-07T10:48:55;7.27;;;1.17;;
17796;SDS011;55596;53.554;9.916;2022-12-07T10:51:32;5.10;;;1.00;;
17796;SDS011;55596;53.554;9.916;2022-12-07T10:54:09;13.47;;;1.10;;
17796;SDS011;55596;53.554;9.916;2022-12-07T10:56:47;8.67;;;1.03;;
17796;SDS011;55596;53.554;9.916;2022-12-07T10:59:55;6.07;;;1.10;;
17796;SDS011;55596;53.554;9.916;2022-12-07T11:02:45;5.20;;;1.40;;
17796;SDS011;55596;53.554;9.916;2022-12-07T11:05:39;6.13;;;1.47;;
17796;SDS011;55596;53.554;9.916;2022-12-07T11:08:14;7.57;;;0.70;;
17796;SDS011;55596;53.554;9.916;2022-12-07T11:11:04;9.20;;;1.43;;
17796;SDS011;55596;53.554;9.916;2022-12-07T11:13:44;6.43;;;1.47;;
17796;SDS011;55596;53.554;9.916;2022-12-07T11:16:25;4.83;;;1.03;;
17796;SDS011;55596;53.554;9.916;2022-12-07T11:19:09;9.80;;;1.27;;
17796;SDS011;55596;53.554;9.916;2022-12-07T11:21:56;9.70;;;1.27;;
17796;SDS011;55596;53.554;9.916;2022-12-07T11:24:27;5.73;;;1.10;;
17796;SDS011;55596;53.554;9.916;2022-12-07T11:27:10;19.93;;;1.73;;
17796;SDS011;55596;53.554;9.916;2022-12-07T11:29:54;5.37;;;1.30;;
17796;SDS011;55596;53.554;9.916;2022-12-07T11:32:38;7.03;;;1.20;;
17796;SDS011;55596;53.554;9.916;2022-12-07T11:35:18;10.37;;;1.30;;
17796;SDS011;55596;53.554;9.916;2022-12-07T11:37:51;7.30;;;1.37;;
17796;SDS011;55596;53.554;9.916;2022-12-07T11:40:27;7.17;;;1.43;;
17796;SDS011;55596;53.554;9.916;2022-12-07T11:43:00;6.20;;;1.30;;
17796;SDS011;55596;53.554;9.916;2022-12-07T11:45:32;8.00;;;1.30;;
17796;SDS011;55596;53.554;9.916;2022-12-07T11:48:02;6.57;;;1.00;;
17796;SDS011;55596;53.554;9.916;2022-12-07T11:50:35;7.23;;;1.07;;
17796;SDS011;55596;53.554;9.916;2022-12-07T11:53:06;7.80;;;1.27;;
17796;SDS011;55596;53.554;9.916;2022-12-07T11:55:41;6.77;;;1.17;;
17796;SDS011;55596;53.554;9.916;2022-12-07T11:58:20;6.27;;;0.97;;
17796;SDS011;55596;53.554;9.916;2022-12-07T12:01:04;7.10;;;1.43;;
17796;SDS011;55596;53.554;9.916;2022-12-07T12:03:47;8.07;;;1.27;;
17796;SDS011;55596;53.554;9.916;2022-12-07T12:06:17;10.57;;;1.30;;
17796;SDS011;55596;53.554;9.916;2022-12-07T12:08:45;7.63;;;1.23;;
17796;SDS011;55596;53.554;9.916;2022-12-07T12:11:22;5.90;;;1.10;;
17796;SDS011;55596;53.554;9.916;2022-12-07T12:14:13;8.50;;;3.20;;
17796;SDS011;55596;53.554;9.916;2022-12-07T12:17:02;6.73;;;1.70;;
17796;SDS011;55596;53.554;9.916;2022-12-07T12:19:42;8.10;;;1.80;;
17796;SDS011;55596;53.554;9.916;2022-12-07T12:22:22;7.43;;;1.70;;
17796;SDS011;55596;53.554;9.916;2022-12-07T12:24:57;5.67;;;1.30;;
17796;SDS011;55596;53.554;9.916;2022-12-07T12:27:25;5.20;;;1.33;;
17796;SDS011;55596;53.554;9.916;2022-12-07T12:29:56;6.07;;;0.97;;
17796;SDS011;55596;53.554;9.916;2022-12-07T12:32:29;7.60;;;1.30;;
17796;SDS011;55596;53.554;9.916;2022-12-07T12:40:56;10.17;;;1.80;;
17796;SDS011;55596;53.554;9.916;2022-12-07T12:55:24;10.33;;;1.43;;
17796;SDS011;55596;53.554;9.916;2022-12-07T12:58:28;9.30;;;1.77;;
17796;SDS011;55596;53.554;9.916;2022-12-07T13:04:17;8.97;;;1.90;;
17796;SDS011;55596;53.554;9.916;2022-12-07T13:06:50;8.03;;;1.70;;
17796;SDS011;55596;53.554;9.916;2022-12-07T13:09:19;8.13;;;1.30;;
17796;SDS011;55596;53.554;9.916;2022-12-07T13:11:50;6.07;;;1.63;;
17796;SDS011;55596;53.554;9.916;2022-12-07T13:14:43;6.03;;;1.37;;
17796;SDS011;55596;53.554;9.916;2022-12-07T13:23:08;8.27;;;1.43;;
17796;SDS011;55596;53.554;9.916;2022-12-07T13:25:38;6.43;;;1.23;;
17796;SDS011;55596;53.554;9.916;2022-12-07T13:28:17;8.67;;;1.53;;
17796;SDS011;55596;53.554;9.916;2022-12-07T13:30:57;7.97;;;1.33;;
17796;SDS011;55596;53.554;9.916;2022-12-07T13:33:32;5.70;;;1.40;;
17796;SDS011;55596;53.554;9.916;2022-12-07T13:36:01;5.53;;;1.10;;
17796;SDS011;55596;53.554;9.916;2022-12-07T13:38:29;11.53;;;1.27;;
17796;SDS011;55596;53.554;9.916;2022-12-07T13:41:11;9.57;;;1.27;;
17796;SDS011;55596;53.554;9.916;2022-12-07T13:43:47;8.87;;;1.47;;
17796;SDS011;55596;53.554;9.916;2022-12-07T13:46:17;12.13;;;1.17;;
17796;SDS011;55596;53.554;9.916;2022-12-07T13:48:49;9.00;;;1.43;;
17796;SDS011;55596;53.554;9.916;2022-12-07T13:51:20;7.30;;;1.37;;
17796;SDS011;55596;53.554;9.916;2022-12-07T13:53:49;6.33;;;1.13;;
17796;SDS011;55596;53.554;9.916;2022-12-07T13:56:20;10.17;;;1.20;;
17796;SDS011;55596;53.554;9.916;2022-12-07T13:58:50;6.07;;;1.20;;
17796;SDS011;55596;53.554;9.916;2022-12-07T14:01:18;8.90;;;1.17;;
17796;SDS011;55596;53.554;9.916;2022-12-07T14:03:45;4.73;;;1.17;;
17796;SDS011;55596;53.554;9.916;2022-12-07T14:06:14;4.50;;;0.97;;
17796;SDS011;55596;53.554;9.916;2022-12-07T14:09:05;5.20;;;1.20;;
17796;SDS011;55596;53.554;9.916;2022-12-07T14:11:33;6.60;;;1.33;;
17796;SDS011;55596;53.554;9.916;2022-12-07T14:14:02;8.90;;;1.07;;
17796;SDS011;55596;53.554;9.916;2022-12-07T14:16:31;2.53;;;0.83;;
17796;SDS011;55596;53.554;9.916;2022-12-07T14:19:00;5.53;;;1.00;;
17796;SDS011;55596;53.554;9.916;2022-12-07T14:21:30;4.97;;;1.10;;
17796;SDS011;55596;53.554;9.916;2022-12-07T14:26:46;7.57;;;1.27;;
17796;SDS011;55596;53.554;9.916;2022-12-07T14:29:27;4.63;;;0.90;;
17796;SDS011;55596;53.554;9.916;2022-12-07T14:31:59;6.83;;;0.93;;
17796;SDS011;55596;53.554;9.916;2022-12-07T14:34:54;6.10;;;1.03;;
17796;SDS011;55596;53.554;9.916;2022-12-07T14:37:23;6.40;;;1.43;;
17796;SDS011;55596;53.554;9.916;2022-12-07T14:39:50;6.60;;;1.07;;
17796;SDS011;55596;53.554;9.916;2022-12-07T14:42:17;6.13;;;1.10;;
17796;SDS011;55596;53.554;9.916;2022-12-07T14:44:47;10.23;;;1.03;;
17796;SDS011;55596;53.554;9.916;2022-12-07T14:47:16;5.47;;;1.00;;
17796;SDS011;55596;53.554;9.916;2022-12-07T14:49:44;2.93;;;0.73;;
17796;SDS011;55596;53.554;9.916;2022-12-07T14:52:13;2.23;;;0.83;;
17796;SDS011;55596;53.554;9.916;2022-12-07T14:54:43;7.60;;;1.60;;
17796;SDS011;55596;53.554;9.916;2022-12-07T14:57:11;4.40;;;0.90;;
17796;SDS011;55596;53.554;9.916;2022-12-07T14:59:38;4.37;;;0.97;;
17796;SDS011;55596;53.554;9.916;2022-12-07T15:02:08;5.67;;;1.10;;
17796;SDS011;55596;53.554;9.916;2022-12-07T15:04:37;5.17;;;1.47;;
17796;SDS011;55596;53.554;9.916;2022-12-07T15:07:05;14.90;;;1.10;;
17796;SDS011;55596;53.554;9.916;2022-12-07T15:09:37;5.60;;;1.20;;
17796;SDS011;55596;53.554;9.916;2022-12-07T15:12:04;4.53;;;1.07;;
17796;SDS011;55596;53.554;9.916;2022-12-07T15:14:32;1.87;;;0.93;;
17796;SDS011;55596;53.554;9.916;2022-12-07T15:16:59;5.87;;;0.80;;
17796;SDS011;55596;53.554;9.916;2022-12-07T15:19:27;5.10;;;0.93;;
17796;SDS011;55596;53.554;9.916;2022-12-07T15:21:54;5.40;;;1.30;;
17796;SDS011;55596;53.554;9.916;2022-12-07T15:24:21;6.03;;;1.10;;
17796;SDS011;55596;53.554;9.916;2022-12-07T15:26:49;9.43;;;1.20;;
17796;SDS011;55596;53.554;9.916;2022-12-07T15:29:17;7.90;;;1.20;;
17796;SDS011;55596;53.554;9.916;2022-12-07T15:31:45;6.90;;;1.50;;
17796;SDS011;55596;53.554;9.916;2022-12-07T15:34:14;7.27;;;1.40;;
17796;SDS011;55596;53.554;9.916;2022-12-07T15:36:42;3.90;;;1.03;;
17796;SDS011;55596;53.554;9.916;2022-12-07T15:39:10;7.57;;;0.80;;
17796;SDS011;55596;53.554;9.916;2022-12-07T15:41:37;8.00;;;1.20;;
17796;SDS011;55596;53.554;9.916;2022-12-07T15:44:04;5.37;;;1.00;;
17796;SDS011;55596;53.554;9.916;2022-12-07T15:46:49;6.73;;;1.27;;